sensor_id;sensor_type;location;lat;lon;timestamp;pressure;altitude;pressure_sealevel;temperature;humidity
75609;BME280;64194;51.044;13.780;2023-01-26T00:01:23;101135.97;;;2.65;76.44
75609;BME280;64194;51.044;13.780;2023-01-26T00:05:25;101130.81;;;2.59;76.70
75609;BME280;64194;51.044;13.780;2023-01-26T00:09:27;101129.16;;;2.51;77.07
75609;BME280;64194;51.044;13.780;2023-01-26T00:13:28;101134.41;;;2.51;76.93
75609;BME280;64194;51.044;13.780;2023-01-26T00:17:30;101129.06;;;2.58;76.33
75609;BME280;64194;51.044;13.780;2023-01-26T00:21:31;101129.13;;;2.55;76.72
75609;BME280;64194;51.044;13.780;2023-01-26T00:25:33;101116.91;;;2.53;76.88
75609;BME280;64194;51.044;13.780;2023-01-26T00:29:34;101124.78;;;2.52;77.12
75609;BME280;64194;51.044;13.780;2023-01-26T00:33:36;101115.97;;;2.58;76.66
75609;BME280;64194;51.044;13.780;2023-01-26T00:37:40;101108.16;;;2.53;76.79
75609;BME280;64194;51.044;13.780;2023-01-26T00:41:42;101109.03;;;2.53;76.88
75609;BME280;64194;51.044;13.780;2023-01-26T00:46:02;101107.28;;;2.56;76.62
75609;BME280;64194;51.044;13.780;2023-01-26T00:50:05;101101.16;;;2.53;77.05
75609;BME280;64194;51.044;13.780;2023-01-26T00:54:06;101105.53;;;2.55;77.19
75609;BME280;64194;51.044;13.780;2023-01-26T00:58:08;101111.56;;;2.60;76.93
75609;BME280;64194;51.044;13.780;2023-01-26T01:02:10;101100.22;;;2.59;76.69
75609;BME280;64194;51.044;13.780;2023-01-26T01:06:12;101104.59;;;2.59;76.58
75609;BME280;64194;51.044;13.780;2023-01-26T01:10:14;101100.28;;;2.56;76.90
75609;BME280;64194;51.044;13.780;2023-01-26T01:14:16;101108.09;;;2.58;76.92
75609;BME280;64194;51.044;13.780;2023-01-26T01:18:18;101096.72;;;2.57;76.95
75609;BME280;64194;51.044;13.780;2023-01-26T01:22:20;101102.84;;;2.58;76.92
75609;BME280;64194;51.044;13.780;2023-01-26T01:26:21;101103.72;;;2.57;76.74
75609;BME280;64194;51.044;13.780;2023-01-26T01:30:23;101103.72;;;2.58;76.49
75609;BME280;64194;51.044;13.780;2023-01-26T01:34:25;101092.44;;;2.53;76.66
75609;BME280;64194;51.044;13.780;2023-01-26T01:38:26;101085.44;;;2.53;77.20
75609;BME280;64194;51.044;13.780;2023-01-26T01:42:28;101092.44;;;2.53;76.80
75609;BME280;64194;51.044;13.780;2023-01-26T01:46:34;101085.53;;;2.47;77.37
75609;BME280;64194;51.044;13.780;2023-01-26T01:50:38;101071.56;;;2.47;77.11
75609;BME280;64194;51.044;13.780;2023-01-26T01:54:49;101064.63;;;2.44;77.26
75609;BME280;64194;51.044;13.780;2023-01-26T01:58:54;101064.66;;;2.41;77.76
75609;BME280;64194;51.044;13.780;2023-01-26T02:03:03;101061.16;;;2.41;77.66
75609;BME280;64194;51.044;13.780;2023-01-26T02:07:13;101059.50;;;2.35;77.70
75609;BME280;64194;51.044;13.780;2023-01-26T02:11:18;101056.84;;;2.38;77.79
75609;BME280;64194;51.044;13.780;2023-01-26T02:15:21;101048.16;;;2.35;77.71
75609;BME280;64194;51.044;13.780;2023-01-26T02:19:47;101045.53;;;2.36;78.01
75609;BME280;64194;51.044;13.780;2023-01-26T02:24:06;101042.16;;;2.28;78.08
75609;BME280;64194;51.044;13.780;2023-01-26T02:28:11;101029.00;;;2.30;78.10
75609;BME280;64194;51.044;13.780;2023-01-26T02:32:13;101015.91;;;2.31;78.60
75609;BME280;64194;51.044;13.780;2023-01-26T02:36:27;100997.63;;;2.27;78.65
75609;BME280;64194;51.044;13.780;2023-01-26T02:40:41;100999.22;;;2.35;78.45
75609;BME280;64194;51.044;13.780;2023-01-26T02:44:45;100995.63;;;2.41;78.00
75609;BME280;64194;51.044;13.780;2023-01-26T02:48:46;100986.91;;;2.40;77.69
75609;BME280;64194;51.044;13.780;2023-01-26T02:53:11;100986.09;;;2.37;78.32
75609;BME280;64194;51.044;13.780;2023-01-26T02:57:12;100984.25;;;2.43;77.75
75609;BME280;64194;51.044;13.780;2023-01-26T03:01:14;100986.00;;;2.41;77.85
75609;BME280;64194;51.044;13.780;2023-01-26T03:05:20;100991.22;;;2.44;77.56
75609;BME280;64194;51.044;13.780;2023-01-26T03:09:22;100987.16;;;2.27;78.04
75609;BME280;64194;51.044;13.780;2023-01-26T03:13:23;100981.22;;;2.14;78.83
75609;BME280;64194;51.044;13.780;2023-01-26T03:17:25;100988.31;;;2.09;78.97
75609;BME280;64194;51.044;13.780;2023-01-26T03:21:26;100980.28;;;2.20;78.94
75609;BME280;64194;51.044;13.780;2023-01-26T03:25:47;100968.03;;;2.22;78.98
75609;BME280;64194;51.044;13.780;2023-01-26T03:30:09;100976.00;;;2.14;78.99
75609;BME280;64194;51.044;13.780;2023-01-26T03:34:11;100972.47;;;2.18;79.26
75609;BME280;64194;51.044;13.780;2023-01-26T03:38:13;100972.22;;;2.30;78.44
75609;BME280;64194;51.044;13.780;2023-01-26T03:42:20;100960.75;;;2.37;78.19
75609;BME280;64194;51.044;13.780;2023-01-26T03:46:40;100966.88;;;2.38;78.22
75609;BME280;64194;51.044;13.780;2023-01-26T03:51:01;100967.84;;;2.32;78.56
75609;BME280;64194;51.044;13.780;2023-01-26T03:55:22;100954.78;;;2.29;79.58
75609;BME280;64194;51.044;13.780;2023-01-26T03:59:42;100956.56;;;2.29;79.51
75609;BME280;64194;51.044;13.780;2023-01-26T04:03:50;100947.75;;;2.31;79.52
75609;BME280;64194;51.044;13.780;2023-01-26T04:08:11;100946.09;;;2.27;79.29
75609;BME280;64194;51.044;13.780;2023-01-26T04:12:35;100932.13;;;2.27;79.35
75609;BME280;64194;51.044;13.780;2023-01-26T04:16:47;100941.81;;;2.23;79.61
75609;BME280;64194;51.044;13.780;2023-01-26T04:21:08;100949.69;;;2.20;79.97
75609;BME280;64194;51.044;13.780;2023-01-26T04:25:31;100936.59;;;2.20;79.46
75609;BME280;64194;51.044;13.780;2023-01-26T04:29:32;100927.84;;;2.21;79.60
75609;BME280;64194;51.044;13.780;2023-01-26T04:33:34;100939.22;;;2.20;79.48
75609;BME280;64194;51.044;13.780;2023-01-26T04:37:37;100932.34;;;2.13;79.54
75609;BME280;64194;51.044;13.780;2023-01-26T04:41:39;100926.19;;;2.17;80.02
75609;BME280;64194;51.044;13.780;2023-01-26T04:50:01;100918.41;;;2.13;79.56
75609;BME280;64194;51.044;13.780;2023-01-26T04:54:02;100914.91;;;2.12;79.69
75609;BME280;64194;51.044;13.780;2023-01-26T04:58:05;100920.16;;;2.12;79.99
75609;BME280;64194;51.044;13.780;2023-01-26T05:02:08;100918.34;;;2.14;79.99
75609;BME280;64194;51.044;13.780;2023-01-26T05:06:10;100916.59;;;2.16;79.79
75609;BME280;64194;51.044;13.780;2023-01-26T05:10:12;100921.91;;;2.12;79.76
75609;BME280;64194;51.044;13.780;2023-01-26T05:14:30;100919.22;;;2.13;79.76
75609;BME280;64194;51.044;13.780;2023-01-26T05:18:40;100920.19;;;2.09;79.60
75609;BME280;64194;51.044;13.780;2023-01-26T05:23:04;100928.94;;;2.08;79.35
75609;BME280;64194;51.044;13.780;2023-01-26T05:27:06;100929.84;;;2.07;79.75
75609;BME280;64194;51.044;13.780;2023-01-26T05:31:26;100929.00;;;2.05;79.50
75609;BME280;64194;51.044;13.780;2023-01-26T05:35:28;100929.88;;;2.04;79.83
75609;BME280;64194;51.044;13.780;2023-01-26T05:39:30;100928.94;;;2.08;79.95
75609;BME280;64194;51.044;13.780;2023-01-26T05:43:33;100931.50;;;2.13;79.79
75609;BME280;64194;51.044;13.780;2023-01-26T05:47:54;100934.06;;;2.14;79.68
75609;BME280;64194;51.044;13.780;2023-01-26T05:51:57;100939.28;;;2.17;79.06
75609;BME280;64194;51.044;13.780;2023-01-26T05:55:59;100930.66;;;2.10;79.07
75609;BME280;64194;51.044;13.780;2023-01-26T06:00:04;100922.88;;;2.06;79.65
75609;BME280;64194;51.044;13.780;2023-01-26T06:04:13;100928.03;;;2.09;79.61
75609;BME280;64194;51.044;13.780;2023-01-26T06:08:25;100933.25;;;2.12;79.26
75609;BME280;64194;51.044;13.780;2023-01-26T06:12:49;100932.47;;;2.07;79.94
75609;BME280;64194;51.044;13.780;2023-01-26T06:17:05;100935.09;;;2.07;80.12
75609;BME280;64194;51.044;13.780;2023-01-26T06:21:07;100935.97;;;2.06;80.18
75609;BME280;64194;51.044;13.780;2023-01-26T06:25:09;100930.75;;;2.03;80.82
75609;BME280;64194;51.044;13.780;2023-01-26T06:29:11;100934.34;;;1.99;80.85
75609;BME280;64194;51.044;13.780;2023-01-26T06:33:13;100936.94;;;1.99;81.02
75609;BME280;64194;51.044;13.780;2023-01-26T06:37:15;100940.50;;;1.96;80.68
75609;BME280;64194;51.044;13.780;2023-01-26T06:41:17;100943.06;;;1.98;80.78
75609;BME280;64194;51.044;13.780;2023-01-26T06:45:19;100943.22;;;1.89;80.85
75609;BME280;64194;51.044;13.780;2023-01-26T06:49:23;100940.63;;;1.89;81.76
75609;BME280;64194;51.044;13.780;2023-01-26T06:53:29;100930.94;;;1.94;81.67
75609;BME280;64194;51.044;13.780;2023-01-26T06:57:50;100929.19;;;1.91;81.47
75609;BME280;64194;51.044;13.780;2023-01-26T07:02:19;100924.91;;;1.89;81.57
75609;BME280;64194;51.044;13.780;2023-01-26T07:06:20;100925.84;;;1.85;81.75
75609;BME280;64194;51.044;13.780;2023-01-26T07:10:22;100931.88;;;1.90;82.51
75609;BME280;64194;51.044;13.780;2023-01-26T07:14:24;100937.94;;;1.92;83.62
75609;BME280;64194;51.044;13.780;2023-01-26T07:18:25;100924.91;;;1.89;83.91
75609;BME280;64194;51.044;13.780;2023-01-26T07:22:27;100930.25;;;1.81;84.61
75609;BME280;64194;51.044;13.780;2023-01-26T07:26:29;100935.63;;;1.72;84.67
75609;BME280;64194;51.044;13.780;2023-01-26T07:30:30;100931.25;;;1.74;84.29
75609;BME280;64194;51.044;13.780;2023-01-26T07:34:32;100919.75;;;1.83;85.32
75609;BME280;64194;51.044;13.780;2023-01-26T07:38:33;100927.53;;;1.89;84.82
75609;BME280;64194;51.044;13.780;2023-01-26T07:43:00;100913.56;;;1.88;83.62
75609;BME280;64194;51.044;13.780;2023-01-26T07:47:26;100927.50;;;1.90;83.81
75609;BME280;64194;51.044;13.780;2023-01-26T07:51:28;100928.38;;;1.91;84.11
75609;BME280;64194;51.044;13.780;2023-01-26T07:56:07;100929.09;;;1.97;84.51
75609;BME280;64194;51.044;13.780;2023-01-26T08:00:35;100926.50;;;1.97;82.64
75609;BME280;64194;51.044;13.780;2023-01-26T08:04:55;100930.72;;;2.06;82.67
75609;BME280;64194;51.044;13.780;2023-01-26T08:08:58;100938.31;;;2.23;82.24
75609;BME280;64194;51.044;13.780;2023-01-26T08:23:15;100917.97;;;2.35;81.05
75609;BME280;64194;51.044;13.780;2023-01-26T08:27:23;100919.66;;;2.39;80.38
75609;BME280;64194;51.044;13.780;2023-01-26T08:31:52;100912.63;;;2.41;80.60
75609;BME280;64194;51.044;13.780;2023-01-26T08:36:00;100909.97;;;2.44;80.65
75609;BME280;64194;51.044;13.780;2023-01-26T08:40:01;100922.19;;;2.45;79.66
75609;BME280;64194;51.044;13.780;2023-01-26T08:53:47;100912.50;;;2.49;81.38
75609;BME280;64194;51.044;13.780;2023-01-26T08:58:15;100903.69;;;2.51;80.30
75609;BME280;64194;51.044;13.780;2023-01-26T09:02:41;100919.56;;;2.45;79.23
75609;BME280;64194;51.044;13.780;2023-01-26T09:07:02;100926.69;;;2.37;80.11
75609;BME280;64194;51.044;13.780;2023-01-26T09:11:05;100931.19;;;2.29;81.58
75609;BME280;64194;51.044;13.780;2023-01-26T09:15:33;100923.47;;;2.23;81.22
75609;BME280;64194;51.044;13.780;2023-01-26T09:19:38;100920.88;;;2.19;81.02
75609;BME280;64194;51.044;13.780;2023-01-26T09:24:12;100927.09;;;2.13;80.86
75609;BME280;64194;51.044;13.780;2023-01-26T09:28:15;100936.78;;;2.09;80.08
75609;BME280;64194;51.044;13.780;2023-01-26T09:32:16;100944.75;;;2.02;81.71
75609;BME280;64194;51.044;13.780;2023-01-26T09:36:18;100950.00;;;2.02;82.17
75609;BME280;64194;51.044;13.780;2023-01-26T09:40:50;100942.13;;;2.02;82.32
75609;BME280;64194;51.044;13.780;2023-01-26T09:49:25;100942.88;;;2.10;81.94
75609;BME280;64194;51.044;13.780;2023-01-26T09:53:56;100941.16;;;2.09;82.74
75609;BME280;64194;51.044;13.780;2023-01-26T10:03:17;100942.91;;;2.08;83.01
75609;BME280;64194;51.044;13.780;2023-01-26T10:07:21;100951.53;;;2.15;82.83
75609;BME280;64194;51.044;13.780;2023-01-26T10:11:29;100947.97;;;2.19;81.95
75609;BME280;64194;51.044;13.780;2023-01-26T10:15:36;100941.91;;;2.17;82.09
75609;BME280;64194;51.044;13.780;2023-01-26T10:19:47;100936.59;;;2.19;82.53
75609;BME280;64194;51.044;13.780;2023-01-26T10:23:51;100940.97;;;2.20;82.91
75609;BME280;64194;51.044;13.780;2023-01-26T10:33:14;100928.72;;;2.20;82.68
75609;BME280;64194;51.044;13.780;2023-01-26T10:42:17;100930.34;;;2.29;81.48
75609;BME280;64194;51.044;13.780;2023-01-26T10:46:43;100913.69;;;2.30;81.91
75609;BME280;64194;51.044;13.780;2023-01-26T10:50:46;100910.97;;;2.37;81.76
75609;BME280;64194;51.044;13.780;2023-01-26T10:59:39;100914.31;;;2.45;80.38
75609;BME280;64194;51.044;13.780;2023-01-26T11:04:04;100907.47;;;2.37;81.02
75609;BME280;64194;51.044;13.780;2023-01-26T11:13:21;100909.22;;;2.36;81.01
75609;BME280;64194;51.044;13.780;2023-01-26T11:17:39;100905.66;;;2.40;80.72
75609;BME280;64194;51.044;13.780;2023-01-26T11:21:53;100903.97;;;2.36;80.04
75609;BME280;64194;51.044;13.780;2023-01-26T11:39:41;100885.94;;;2.66;78.27
75609;BME280;64194;51.044;13.780;2023-01-26T12:08:06;100862.72;;;2.46;77.52
75609;BME280;64194;51.044;13.780;2023-01-26T12:22:37;100837.44;;;2.43;76.73
75609;BME280;64194;51.044;13.780;2023-01-26T12:26:44;100831.34;;;2.43;76.47
75609;BME280;64194;51.044;13.780;2023-01-26T12:35:26;100831.41;;;2.40;74.89
75609;BME280;64194;51.044;13.780;2023-01-26T12:39:44;100822.59;;;2.44;75.91
75609;BME280;64194;51.044;13.780;2023-01-26T12:44:15;100832.88;;;2.53;74.26
75609;BME280;64194;51.044;13.780;2023-01-26T12:53:04;100819.56;;;2.64;73.90
75609;BME280;64194;51.044;13.780;2023-01-26T12:57:12;100808.19;;;2.65;73.59
75609;BME280;64194;51.044;13.780;2023-01-26T13:01:20;100810.72;;;2.68;73.25
75609;BME280;64194;51.044;13.780;2023-01-26T13:05:27;100797.06;;;2.52;72.73
75609;BME280;64194;51.044;13.780;2023-01-26T13:09:30;100800.75;;;2.43;73.79
75609;BME280;64194;51.044;13.780;2023-01-26T13:13:51;100795.44;;;2.46;74.02
75609;BME280;64194;51.044;13.780;2023-01-26T13:17:59;100801.75;;;2.36;74.31
75609;BME280;64194;51.044;13.780;2023-01-26T13:22:02;100806.19;;;2.34;74.14
75609;BME280;64194;51.044;13.780;2023-01-26T13:34:36;100798.19;;;2.40;73.37
75609;BME280;64194;51.044;13.780;2023-01-26T13:38:42;100806.00;;;2.42;72.26
75609;BME280;64194;51.044;13.780;2023-01-26T13:43:00;100806.00;;;2.43;72.68
75609;BME280;64194;51.044;13.780;2023-01-26T13:47:12;100800.63;;;2.49;72.90
75609;BME280;64194;51.044;13.780;2023-01-26T13:51:25;100806.13;;;2.37;73.94
75609;BME280;64194;51.044;13.780;2023-01-26T13:55:30;100806.31;;;2.28;73.60
75609;BME280;64194;51.044;13.780;2023-01-26T13:59:47;100811.56;;;2.27;73.59
75609;BME280;64194;51.044;13.780;2023-01-26T14:04:01;100814.97;;;2.30;73.91
75609;BME280;64194;51.044;13.780;2023-01-26T14:08:03;100809.94;;;2.21;74.00
75609;BME280;64194;51.044;13.780;2023-01-26T14:12:06;100806.63;;;2.12;73.87
75609;BME280;64194;51.044;13.780;2023-01-26T14:16:23;100798.69;;;2.15;74.25
75609;BME280;64194;51.044;13.780;2023-01-26T14:20:33;100805.56;;;2.22;73.76
75609;BME280;64194;51.044;13.780;2023-01-26T14:24:37;100798.59;;;2.19;73.24
75609;BME280;64194;51.044;13.780;2023-01-26T14:28:44;100806.66;;;2.10;74.18
75609;BME280;64194;51.044;13.780;2023-01-26T14:32:47;100811.22;;;1.99;74.96
75609;BME280;64194;51.044;13.780;2023-01-26T14:37:12;100809.66;;;1.89;76.03
75609;BME280;64194;51.044;13.780;2023-01-26T14:41:24;100806.09;;;1.91;75.12
75609;BME280;64194;51.044;13.780;2023-01-26T14:45:30;100805.28;;;1.91;75.08
75609;BME280;64194;51.044;13.780;2023-01-26T14:49:41;100810.50;;;1.91;74.25
75609;BME280;64194;51.044;13.780;2023-01-26T14:53:55;100806.09;;;1.93;74.42
75609;BME280;64194;51.044;13.780;2023-01-26T14:58:00;100812.19;;;1.95;75.08
75609;BME280;64194;51.044;13.780;2023-01-26T15:02:23;100809.47;;;1.99;75.08
75609;BME280;64194;51.044;13.780;2023-01-26T15:06:27;100810.44;;;1.94;73.88
75609;BME280;64194;51.044;13.780;2023-01-26T15:10:34;100814.94;;;1.86;73.61
75609;BME280;64194;51.044;13.780;2023-01-26T15:14:50;100809.69;;;1.86;73.40
75609;BME280;64194;51.044;13.780;2023-01-26T15:19:03;100812.28;;;1.89;74.17
75609;BME280;64194;51.044;13.780;2023-01-26T15:23:21;100816.59;;;1.91;73.75
75609;BME280;64194;51.044;13.780;2023-01-26T15:27:23;100821.78;;;1.96;73.95
75609;BME280;64194;51.044;13.780;2023-01-26T15:31:36;100824.41;;;1.93;73.75
75609;BME280;64194;51.044;13.780;2023-01-26T15:35:38;100820.84;;;1.97;73.29
75609;BME280;64194;51.044;13.780;2023-01-26T15:39:40;100827.03;;;1.93;73.71
75609;BME280;64194;51.044;13.780;2023-01-26T15:43:44;100826.16;;;1.94;73.26
75609;BME280;64194;51.044;13.780;2023-01-26T15:47:46;100822.75;;;1.89;72.78
75609;BME280;64194;51.044;13.780;2023-01-26T15:51:48;100823.59;;;1.91;72.99
75609;BME280;64194;51.044;13.780;2023-01-26T15:55:52;100823.72;;;1.85;72.51
75609;BME280;64194;51.044;13.780;2023-01-26T15:59:56;100828.16;;;1.80;72.99
75609;BME280;64194;51.044;13.780;2023-01-26T16:03:58;100834.31;;;1.77;73.42
75609;BME280;64194;51.044;13.780;2023-01-26T16:08:00;100842.06;;;1.82;72.46
75609;BME280;64194;51.044;13.780;2023-01-26T16:12:02;100843.00;;;1.79;72.46
75609;BME280;64194;51.044;13.780;2023-01-26T16:16:03;100845.66;;;1.78;72.71
75609;BME280;64194;51.044;13.780;2023-01-26T16:20:08;100845.66;;;1.78;73.18
75609;BME280;64194;51.044;13.780;2023-01-26T16:24:10;100849.16;;;1.77;73.08
75609;BME280;64194;51.044;13.780;2023-01-26T16:28:14;100839.59;;;1.74;73.27
75609;BME280;64194;51.044;13.780;2023-01-26T16:32:28;100846.59;;;1.74;72.48
75609;BME280;64194;51.044;13.780;2023-01-26T16:36:30;100845.81;;;1.68;73.45
75609;BME280;64194;51.044;13.780;2023-01-26T16:40:32;100846.78;;;1.61;73.23
75609;BME280;64194;51.044;13.780;2023-01-26T16:44:34;100847.72;;;1.57;73.04
75609;BME280;64194;51.044;13.780;2023-01-26T16:48:39;100853.09;;;1.48;73.20
75609;BME280;64194;51.044;13.780;2023-01-26T16:52:41;100853.19;;;1.42;73.54
75609;BME280;64194;51.044;13.780;2023-01-26T16:56:43;100853.25;;;1.39;74.27
75609;BME280;64194;51.044;13.780;2023-01-26T17:00:46;100848.81;;;1.43;74.21
75609;BME280;64194;51.044;13.780;2023-01-26T17:04:51;100846.16;;;1.47;73.64
75609;BME280;64194;51.044;13.780;2023-01-26T17:08:53;100853.94;;;1.50;73.12
75609;BME280;64194;51.044;13.780;2023-01-26T17:12:54;100857.59;;;1.40;73.42
75609;BME280;64194;51.044;13.780;2023-01-26T17:16:56;100863.81;;;1.33;73.68
75609;BME280;64194;51.044;13.780;2023-01-26T17:21:01;100851.56;;;1.35;73.70
75609;BME280;64194;51.044;13.780;2023-01-26T17:25:04;100868.06;;;1.39;73.45
75609;BME280;64194;51.044;13.780;2023-01-26T17:29:05;100871.56;;;1.41;73.53
75609;BME280;64194;51.044;13.780;2023-01-26T17:33:07;100868.84;;;1.45;73.15
75609;BME280;64194;51.044;13.780;2023-01-26T17:37:08;100867.22;;;1.37;73.12
75609;BME280;64194;51.044;13.780;2023-01-26T17:41:10;100867.38;;;1.26;73.93
75609;BME280;64194;51.044;13.780;2023-01-26T17:45:12;100872.50;;;1.35;73.51
75609;BME280;64194;51.044;13.780;2023-01-26T17:49:14;100875.94;;;1.37;74.06
75609;BME280;64194;51.044;13.780;2023-01-26T17:53:16;100875.13;;;1.34;73.50
75609;BME280;64194;51.044;13.780;2023-01-26T17:57:17;100879.59;;;1.27;73.05
75609;BME280;64194;51.044;13.780;2023-01-26T18:01:21;100879.66;;;1.21;73.29
75609;BME280;64194;51.044;13.780;2023-01-26T18:05:23;100882.19;;;1.29;73.18
75609;BME280;64194;51.044;13.780;2023-01-26T18:09:24;100881.31;;;1.28;72.32
75609;BME280;64194;51.044;13.780;2023-01-26T18:13:27;100881.34;;;1.26;73.23
75609;BME280;64194;51.044;13.780;2023-01-26T18:17:29;100876.97;;;1.29;71.94
75609;BME280;64194;51.044;13.780;2023-01-26T18:21:31;100886.56;;;1.28;72.11
75609;BME280;64194;51.044;13.780;2023-01-26T18:25:34;100885.69;;;1.27;71.60
75609;BME280;64194;51.044;13.780;2023-01-26T18:29:36;100884.88;;;1.22;71.68
75609;BME280;64194;51.044;13.780;2023-01-26T18:33:38;100891.94;;;1.19;72.91
75609;BME280;64194;51.044;13.780;2023-01-26T18:37:40;100893.66;;;1.20;72.02
75609;BME280;64194;51.044;13.780;2023-01-26T18:41:42;100901.53;;;1.18;72.37
75609;BME280;64194;51.044;13.780;2023-01-26T18:45:44;100891.94;;;1.16;73.03
75609;BME280;64194;51.044;13.780;2023-01-26T18:49:46;100898.97;;;1.14;73.11
75609;BME280;64194;51.044;13.780;2023-01-26T18:53:47;100900.72;;;1.12;73.57
75609;BME280;64194;51.044;13.780;2023-01-26T18:57:51;100894.75;;;1.02;74.71
75609;BME280;64194;51.044;13.780;2023-01-26T19:01:54;100901.81;;;0.97;74.89
75609;BME280;64194;51.044;13.780;2023-01-26T19:05:56;100906.16;;;0.97;75.17
75609;BME280;64194;51.044;13.780;2023-01-26T19:09:58;100902.69;;;0.95;76.23
75609;BME280;64194;51.044;13.780;2023-01-26T19:14:00;100900.97;;;0.94;75.90
75609;BME280;64194;51.044;13.780;2023-01-26T19:18:03;100895.72;;;0.94;76.32
75609;BME280;64194;51.044;13.780;2023-01-26T19:22:04;100896.53;;;0.99;76.76
75609;BME280;64194;51.044;13.780;2023-01-26T19:26:20;100893.97;;;0.96;78.26
75609;BME280;64194;51.044;13.780;2023-01-26T19:30:23;100895.78;;;0.92;79.13
75609;BME280;64194;51.044;13.780;2023-01-26T19:34:25;100895.06;;;0.79;77.69
75609;BME280;64194;51.044;13.780;2023-01-26T19:38:29;100897.59;;;0.82;77.92
75609;BME280;64194;51.044;13.780;2023-01-26T19:42:31;100896.66;;;0.90;77.42
75609;BME280;64194;51.044;13.780;2023-01-26T19:46:33;100891.47;;;0.87;77.63
75609;BME280;64194;51.044;13.780;2023-01-26T19:50:34;100894.03;;;0.91;77.89
75609;BME280;64194;51.044;13.780;2023-01-26T19:54:36;100896.78;;;0.79;78.01
75609;BME280;64194;51.044;13.780;2023-01-26T19:58:38;100895.00;;;0.84;78.47
75609;BME280;64194;51.044;13.780;2023-01-26T20:02:40;100895.72;;;0.94;77.79
75609;BME280;64194;51.044;13.780;2023-01-26T20:06:42;100895.78;;;0.89;78.09
75609;BME280;64194;51.044;13.780;2023-01-26T20:10:44;100887.00;;;0.95;79.21
75609;BME280;64194;51.044;13.780;2023-01-26T20:14:45;100893.09;;;0.97;77.46
75609;BME280;64194;51.044;13.780;2023-01-26T20:18:49;100895.72;;;0.97;77.54
75609;BME280;64194;51.044;13.780;2023-01-26T20:22:50;100895.63;;;1.03;77.10
75609;BME280;64194;51.044;13.780;2023-01-26T20:26:52;100882.50;;;1.06;76.83
75609;BME280;64194;51.044;13.780;2023-01-26T20:30:54;100883.28;;;1.12;76.73
75609;BME280;64194;51.044;13.780;2023-01-26T20:34:59;100872.84;;;1.11;76.32
75609;BME280;64194;51.044;13.780;2023-01-26T20:39:04;100864.06;;;1.15;76.53
75609;BME280;64194;51.044;13.780;2023-01-26T20:43:09;100872.84;;;1.09;76.23
75609;BME280;64194;51.044;13.780;2023-01-26T20:47:11;100868.47;;;1.13;76.18
75609;BME280;64194;51.044;13.780;2023-01-26T20:51:21;100862.47;;;1.05;76.85
75609;BME280;64194;51.044;13.780;2023-01-26T20:55:23;100869.41;;;1.07;77.23
75609;BME280;64194;51.044;13.780;2023-01-26T20:59:25;100876.41;;;1.05;77.14
75609;BME280;64194;51.044;13.780;2023-01-26T21:03:27;100873.91;;;0.96;76.73
75609;BME280;64194;51.044;13.780;2023-01-26T21:07:28;100880.94;;;0.93;77.02
75609;BME280;64194;51.044;13.780;2023-01-26T21:11:34;100879.94;;;1.03;76.44
75609;BME280;64194;51.044;13.780;2023-01-26T21:15:36;100885.16;;;1.03;76.43
75609;BME280;64194;51.044;13.780;2023-01-26T21:19:38;100899.91;;;1.08;75.85
75609;BME280;64194;51.044;13.780;2023-01-26T21:28:49;100881.25;;;1.34;75.09
75609;BME280;64194;51.044;13.780;2023-01-26T21:33:00;100880.53;;;1.23;75.36
75609;BME280;64194;51.044;13.780;2023-01-26T21:37:03;100877.91;;;1.24;75.66
75609;BME280;64194;51.044;13.780;2023-01-26T21:41:10;100888.44;;;1.18;75.43
75609;BME280;64194;51.044;13.780;2023-01-26T21:45:34;100892.97;;;1.06;76.28
75609;BME280;64194;51.044;13.780;2023-01-26T21:50:07;100900.88;;;1.01;76.95
75609;BME280;64194;51.044;13.780;2023-01-26T21:54:10;100894.03;;;0.93;77.79
75609;BME280;64194;51.044;13.780;2023-01-26T21:58:12;100896.72;;;0.87;79.09
75609;BME280;64194;51.044;13.780;2023-01-26T22:02:37;100894.09;;;0.87;78.54
75609;BME280;64194;51.044;13.780;2023-01-26T22:06:40;100895.81;;;0.88;78.35
75609;BME280;64194;51.044;13.780;2023-01-26T22:11:07;100890.53;;;0.92;78.08
75609;BME280;64194;51.044;13.780;2023-01-26T22:15:09;100895.72;;;0.95;78.17
75609;BME280;64194;51.044;13.780;2023-01-26T22:19:13;100896.50;;;1.02;78.12
75609;BME280;64194;51.044;13.780;2023-01-26T22:23:43;100885.13;;;1.04;77.90
75609;BME280;64194;51.044;13.780;2023-01-26T22:27:45;100885.13;;;1.06;78.33
75609;BME280;64194;51.044;13.780;2023-01-26T22:36:38;100863.41;;;1.01;78.12
75609;BME280;64194;51.044;13.780;2023-01-26T22:40:47;100863.41;;;0.99;78.45
75609;BME280;64194;51.044;13.780;2023-01-26T22:45:17;100866.06;;;0.98;77.78
75609;BME280;64194;51.044;13.780;2023-01-26T22:49:21;100869.50;;;1.00;77.42
75609;BME280;64194;51.044;13.780;2023-01-26T22:58:40;100867.78;;;0.99;77.73
75609;BME280;64194;51.044;13.780;2023-01-26T23:08:13;100874.88;;;0.91;79.11
75609;BME280;64194;51.044;13.780;2023-01-26T23:12:41;100883.66;;;0.83;79.23
75609;BME280;64194;51.044;13.780;2023-01-26T23:17:13;100876.69;;;0.82;79.63
75609;BME280;64194;51.044;13.780;2023-01-26T23:21:15;100878.44;;;0.83;79.56
75609;BME280;64194;51.044;13.780;2023-01-26T23:25:17;100875.88;;;0.80;78.74
75609;BME280;64194;51.044;13.780;2023-01-26T23:29:39;100882.09;;;0.70;79.04
75609;BME280;64194;51.044;13.780;2023-01-26T23:33:40;100883.91;;;0.65;79.13
75609;BME280;64194;51.044;13.780;2023-01-26T23:52:46;100866.44;;;0.67;79.03
75609;BME280;64194;51.044;13.780;2023-01-26T23:56:47;100865.50;;;0.71;78.45
